To NAV CANADA Home Page Login to a new session Search on AWWS site Feedback and Comments Disclaimer Vers la page française équivalente Tips FAQ What's new on the site To the Forecasts and Observations / NOTAM section To "File a Flight Plan" website Publications and other links Update of the User's profile FIC Telephone Numbers My Weather Data Folder Route Weather Data Regional Weather Data Local Weather Data To the Forecasts and Observations / NOTAM section
Request Generated 09/04/2015 at 23:08:15 UTC . Weather information available at that time is displayed.

METAR/TAF

TALOYOAK/NU    

METAR CYYH 042300Z 31013KT 15SM FEW012 FEW050 09/02 A3023 RMK SC1SC1
SC TR SC TR SLP240=
METAR CYYH 042200Z 31012KT 15SM FEW015 FEW060 10/02 A3023 RMK SC1SC1
SC TR SC TR SLP239=
METAR CYYH 042100Z 32010KT 15SM FEW015 FEW060 10/01 A3023 RMK SC1SC1
SC TR SC TR SLP239=

TAF CYYH 041738Z 0418/0506 33007KT P6SM SKC
FM042000 33007KT P6SM SCT015 TEMPO 0420/0506 BKN015
RMK NXT FCST BY 050000Z=
Your time UTC time
Weather data provided by Environment Canada and NAV CANADA